N850WA KNEW-KTEB
Flight info
| Callsign | N850WA |
|---|---|
| Flight time | N/A |
| Altitude | 29000 |
| Route | GARTS PAYTN SHYRE MXF OBXAY THRSR TWOUP TNSLY MURKY BLUEJ ANDNN DOCTR SWANN MAZIE3 |
| Aircraft | TBM8/L-SDFGRWY/S |
Departure
| Time | 2026-05-08 17:39 |
|---|---|
| Airport | Lakefront Airport (KNEW) |
Arrival
| Time | N/A |
|---|---|
| Airport | Teterboro Airport (KTEB) |
| Time | Latitude | Longitude | Altitude | Speed | Heading |
|---|---|---|---|---|---|
| 2026-05-08 17:16 | 30.03571 | -90.02665 | 10 ft | 0 kts | 45° |
| 2026-05-08 17:33 | 30.03572 | -90.02665 | 10 ft | 1 kts | 45° |
| 2026-05-08 17:33 | 30.03587 | -90.02707 | 10 ft | 14 kts | 255° |
| 2026-05-08 17:33 | 30.03570 | -90.02768 | 9 ft | 4 kts | 289° |
| 2026-05-08 17:34 | 30.03580 | -90.02775 | 10 ft | 11 kts | 263° |
| 2026-05-08 17:34 | 30.03583 | -90.02859 | 9 ft | 1 kts | 270° |
| 2026-05-08 17:34 | 30.03617 | -90.02859 | 9 ft | 11 kts | 9° |
| 2026-05-08 17:34 | 30.03734 | -90.02856 | 10 ft | 22 kts | 1° |
| 2026-05-08 17:35 | 30.03919 | -90.02860 | 9 ft | 32 kts | 358° |
| 2026-05-08 17:35 | 30.04156 | -90.02860 | 10 ft | 40 kts | 2° |
| 2026-05-08 17:35 | 30.04445 | -90.02869 | 10 ft | 47 kts | 359° |
| 2026-05-08 17:35 | 30.04780 | -90.02872 | 9 ft | 46 kts | 1° |
| 2026-05-08 17:36 | 30.05049 | -90.02850 | 9 ft | 32 kts | 354° |
| 2026-05-08 17:36 | 30.05248 | -90.02880 | 9 ft | 13 kts | 352° |
| 2026-05-08 17:36 | 30.05271 | -90.02949 | 9 ft | 11 kts | 263° |
| 2026-05-08 17:36 | 30.05220 | -90.02987 | 9 ft | 8 kts | 180° |
| 2026-05-08 17:37 | 30.05217 | -90.02987 | 9 ft | 0 kts | 181° |
| 2026-05-08 17:38 | 30.05121 | -90.02989 | 8 ft | 39 kts | 180° |
| 2026-05-08 17:38 | 30.04686 | -90.02984 | 9 ft | 84 kts | 179° |
| 2026-05-08 17:38 | 30.03995 | -90.02985 | 64 ft | 109 kts | 182° |
| 2026-05-08 17:39 | 30.03250 | -90.02992 | 328 ft | 101 kts | 159° |
| 2026-05-08 17:39 | 30.02825 | -90.02430 | 606 ft | 100 kts | 90° |
| 2026-05-08 17:39 | 30.03259 | -90.01842 | 872 ft | 115 kts | 24° |
| 2026-05-08 17:39 | 30.04092 | -90.01566 | 1019 ft | 130 kts | 16° |
| 2026-05-08 17:40 | 30.05041 | -90.01356 | 1086 ft | 147 kts | 25° |
| 2026-05-08 17:40 | 30.05703 | -90.00547 | 1281 ft | 141 kts | 68° |
| 2026-05-08 17:40 | 30.06332 | -89.99641 | 1479 ft | 148 kts | 48° |
| 2026-05-08 17:40 | 30.07041 | -89.98751 | 1671 ft | 152 kts | 54° |
| 2026-05-08 17:41 | 30.07715 | -89.97801 | 1851 ft | 153 kts | 55° |
| 2026-05-08 17:41 | 30.08383 | -89.96851 | 2048 ft | 152 kts | 55° |
| 2026-05-08 17:41 | 30.09052 | -89.95890 | 2238 ft | 154 kts | 54° |
| 2026-05-08 17:41 | 30.09442 | -89.95329 | 2353 ft | 154 kts | 55° |
| 2026-05-08 17:42 | 30.10343 | -89.94045 | 2605 ft | 165 kts | 54° |
| 2026-05-08 17:42 | 30.11095 | -89.92970 | 2806 ft | 179 kts | 54° |
| 2026-05-08 17:42 | 30.11891 | -89.91818 | 3064 ft | 187 kts | 53° |
| 2026-05-08 17:42 | 30.12437 | -89.91030 | 3228 ft | 192 kts | 53° |
| 2026-05-08 17:43 | 30.13584 | -89.89381 | 3562 ft | 201 kts | 53° |
| 2026-05-08 17:43 | 30.14169 | -89.88540 | 3732 ft | 205 kts | 53° |
| 2026-05-08 17:43 | 30.15381 | -89.86797 | 4064 ft | 211 kts | 53° |
| 2026-05-08 17:43 | 30.15993 | -89.85917 | 4221 ft | 213 kts | 52° |
| 2026-05-08 17:44 | 30.17209 | -89.84170 | 4812 ft | 203 kts | 52° |
| 2026-05-08 17:44 | 30.17791 | -89.83336 | 5097 ft | 200 kts | 52° |
| 2026-05-08 17:44 | 30.18660 | -89.82083 | 5453 ft | 200 kts | 52° |
| 2026-05-08 17:44 | 30.19531 | -89.80827 | 5816 ft | 200 kts | 51° |
| 2026-05-08 17:45 | 30.20690 | -89.79157 | 6304 ft | 201 kts | 51° |
| 2026-05-08 17:45 | 30.21282 | -89.78303 | 6546 ft | 202 kts | 51° |
| 2026-05-08 17:45 | 30.22177 | -89.77014 | 6789 ft | 209 kts | 51° |
| 2026-05-08 17:45 | 30.23087 | -89.75699 | 7021 ft | 215 kts | 51° |
| 2026-05-08 17:46 | 30.24034 | -89.74333 | 7262 ft | 220 kts | 51° |
| 2026-05-08 17:46 | 30.24999 | -89.72943 | 7506 ft | 223 kts | 51° |
| 2026-05-08 17:46 | 30.25979 | -89.71527 | 7749 ft | 227 kts | 51° |
| 2026-05-08 17:46 | 30.26972 | -89.70094 | 7993 ft | 230 kts | 51° |
| 2026-05-08 17:47 | 30.27977 | -89.68640 | 8240 ft | 233 kts | 51° |
| 2026-05-08 17:47 | 30.28992 | -89.67175 | 8489 ft | 235 kts | 51° |
| 2026-05-08 17:47 | 30.30016 | -89.65694 | 8735 ft | 237 kts | 51° |
| 2026-05-08 17:47 | 30.31050 | -89.64199 | 8986 ft | 239 kts | 51° |
| 2026-05-08 17:48 | 30.32092 | -89.62692 | 9243 ft | 241 kts | 51° |
| 2026-05-08 17:48 | 30.33146 | -89.61170 | 9501 ft | 243 kts | 51° |
| 2026-05-08 17:48 | 30.34203 | -89.59636 | 9757 ft | 245 kts | 51° |
| 2026-05-08 17:48 | 30.35271 | -89.58085 | 10006 ft | 247 kts | 51° |
| 2026-05-08 17:49 | 30.36348 | -89.56526 | 10251 ft | 248 kts | 51° |
| 2026-05-08 17:49 | 30.37418 | -89.54983 | 10599 ft | 244 kts | 51° |
| 2026-05-08 17:49 | 30.38469 | -89.53455 | 10952 ft | 241 kts | 51° |
| 2026-05-08 17:49 | 30.39509 | -89.51943 | 11304 ft | 239 kts | 51° |
| 2026-05-08 17:50 | 30.40541 | -89.50448 | 11676 ft | 236 kts | 50° |
| 2026-05-08 17:50 | 30.41562 | -89.48967 | 12038 ft | 234 kts | 50° |
| 2026-05-08 17:50 | 30.42461 | -89.47661 | 12364 ft | 233 kts | 49° |
| 2026-05-08 17:50 | 30.43499 | -89.46154 | 12737 ft | 231 kts | 49° |
| 2026-05-08 17:51 | 30.44496 | -89.44703 | 13116 ft | 229 kts | 49° |
| 2026-05-08 17:51 | 30.45484 | -89.43269 | 13491 ft | 226 kts | 49° |
| 2026-05-08 17:51 | 30.46461 | -89.41848 | 13865 ft | 224 kts | 49° |
| 2026-05-08 17:51 | 30.47429 | -89.40442 | 14196 ft | 222 kts | 49° |
| 2026-05-08 17:52 | 30.48385 | -89.39052 | 14542 ft | 219 kts | 49° |
| 2026-05-08 17:52 | 30.49329 | -89.37678 | 14885 ft | 217 kts | 48° |
| 2026-05-08 17:52 | 30.51181 | -89.34981 | 15578 ft | 210 kts | 48° |
| 2026-05-08 17:53 | 30.52087 | -89.33662 | 15931 ft | 207 kts | 47° |
| 2026-05-08 17:53 | 30.52974 | -89.32371 | 16283 ft | 202 kts | 47° |
| 2026-05-08 17:53 | 30.53837 | -89.31115 | 16638 ft | 196 kts | 46° |
| 2026-05-08 17:53 | 30.54673 | -89.29899 | 16997 ft | 189 kts | 46° |
| 2026-05-08 17:54 | 30.55478 | -89.28726 | 17277 ft | 186 kts | 46° |
| 2026-05-08 17:54 | 30.56286 | -89.27542 | 17473 ft | 188 kts | 47° |
| 2026-05-08 17:54 | 30.57116 | -89.26326 | 17574 ft | 199 kts | 46° |
| 2026-05-08 17:54 | 30.57987 | -89.25044 | 17641 ft | 211 kts | 47° |
| 2026-05-08 17:55 | 30.58923 | -89.23668 | 17718 ft | 223 kts | 47° |
| 2026-05-08 17:55 | 30.59917 | -89.22219 | 17805 ft | 235 kts | 48° |
| 2026-05-08 17:55 | 30.60961 | -89.20697 | 17878 ft | 246 kts | 48° |
| 2026-05-08 17:55 | 30.62050 | -89.19107 | 17958 ft | 256 kts | 48° |
| 2026-05-08 17:56 | 30.63180 | -89.17456 | 18029 ft | 266 kts | 48° |
| 2026-05-08 17:56 | 30.64350 | -89.15742 | 18099 ft | 274 kts | 49° |
| 2026-05-08 17:56 | 30.65552 | -89.13981 | 18159 ft | 282 kts | 49° |
| 2026-05-08 17:56 | 30.66737 | -89.12244 | 18218 ft | 287 kts | 49° |
| 2026-05-08 17:57 | 30.67975 | -89.10432 | 18279 ft | 293 kts | 49° |
| 2026-05-08 17:57 | 30.69252 | -89.08561 | 18328 ft | 298 kts | 49° |
| 2026-05-08 17:57 | 30.70550 | -89.06656 | 18388 ft | 302 kts | 49° |
| 2026-05-08 17:57 | 30.71858 | -89.04732 | 18435 ft | 305 kts | 49° |
| 2026-05-08 17:58 | 30.73177 | -89.02791 | 18477 ft | 306 kts | 49° |
| 2026-05-08 17:58 | 30.74495 | -89.00848 | 18553 ft | 305 kts | 49° |
| 2026-05-08 17:58 | 30.75806 | -88.98923 | 18689 ft | 301 kts | 49° |
| 2026-05-08 17:58 | 30.77099 | -88.97024 | 18823 ft | 298 kts | 49° |
| 2026-05-08 17:59 | 30.78378 | -88.95143 | 18953 ft | 295 kts | 49° |
| 2026-05-08 17:59 | 30.79645 | -88.93279 | 19085 ft | 293 kts | 49° |
| 2026-05-08 17:59 | 30.80903 | -88.91427 | 19213 ft | 291 kts | 49° |
| 2026-05-08 17:59 | 30.82154 | -88.89585 | 19356 ft | 288 kts | 49° |
| 2026-05-08 18:00 | 30.83367 | -88.87795 | 19577 ft | 283 kts | 49° |
| 2026-05-08 18:00 | 30.85766 | -88.84258 | 20031 ft | 274 kts | 47° |
| 2026-05-08 18:00 | 30.86939 | -88.82527 | 20255 ft | 271 kts | 47° |
| 2026-05-08 18:01 | 30.88099 | -88.80813 | 20487 ft | 267 kts | 47° |
| 2026-05-08 18:01 | 30.89243 | -88.79124 | 20721 ft | 264 kts | 47° |
| 2026-05-08 18:01 | 30.90372 | -88.77454 | 20962 ft | 261 kts | 47° |
| 2026-05-08 18:01 | 30.91489 | -88.75795 | 21208 ft | 259 kts | 47° |
| 2026-05-08 18:02 | 30.92601 | -88.74155 | 21453 ft | 257 kts | 47° |
| 2026-05-08 18:02 | 30.93333 | -88.73076 | 21615 ft | 256 kts | 47° |
| 2026-05-08 18:02 | 30.94796 | -88.70907 | 21947 ft | 253 kts | 47° |
| 2026-05-08 18:02 | 30.95883 | -88.69299 | 22197 ft | 253 kts | 47° |
| 2026-05-08 18:03 | 30.96980 | -88.67673 | 22331 ft | 257 kts | 47° |
| 2026-05-08 18:03 | 30.98092 | -88.66024 | 22460 ft | 261 kts | 47° |
| 2026-05-08 18:03 | 30.99205 | -88.64372 | 22590 ft | 264 kts | 47° |
| 2026-05-08 18:03 | 31.00348 | -88.62676 | 22717 ft | 267 kts | 47° |
| 2026-05-08 18:04 | 31.01505 | -88.60960 | 22863 ft | 270 kts | 47° |
| 2026-05-08 18:04 | 31.02673 | -88.59226 | 22994 ft | 273 kts | 47° |
| 2026-05-08 18:04 | 31.03847 | -88.57480 | 23129 ft | 275 kts | 47° |
| 2026-05-08 18:04 | 31.05031 | -88.55720 | 23261 ft | 277 kts | 47° |
| 2026-05-08 18:05 | 31.06222 | -88.53949 | 23398 ft | 279 kts | 48° |
| 2026-05-08 18:05 | 31.07422 | -88.52164 | 23535 ft | 280 kts | 48° |
| 2026-05-08 18:05 | 31.08629 | -88.50368 | 23660 ft | 282 kts | 48° |
| 2026-05-08 18:05 | 31.09836 | -88.48562 | 23770 ft | 283 kts | 50° |
| 2026-05-08 18:06 | 31.10969 | -88.46676 | 23875 ft | 284 kts | 50° |
| 2026-05-08 18:06 | 31.12144 | -88.44820 | 23988 ft | 284 kts | 49° |
| 2026-05-08 18:06 | 31.13319 | -88.42963 | 24099 ft | 285 kts | 50° |
| 2026-05-08 18:06 | 31.14477 | -88.41085 | 24209 ft | 285 kts | 50° |
| 2026-05-08 18:07 | 31.15637 | -88.39201 | 24324 ft | 285 kts | 50° |
| 2026-05-08 18:07 | 31.16802 | -88.37321 | 24436 ft | 286 kts | 50° |
| 2026-05-08 18:07 | 31.17967 | -88.35441 | 24548 ft | 286 kts | 50° |
| 2026-05-08 18:07 | 31.19132 | -88.33557 | 24661 ft | 286 kts | 50° |
| 2026-05-08 18:08 | 31.20298 | -88.31669 | 24774 ft | 286 kts | 50° |
| 2026-05-08 18:08 | 31.21465 | -88.29780 | 24889 ft | 287 kts | 50° |
| 2026-05-08 18:08 | 31.22632 | -88.27891 | 25001 ft | 287 kts | 50° |
| 2026-05-08 18:08 | 31.23807 | -88.25989 | 25058 ft | 292 kts | 50° |
| 2026-05-08 18:09 | 31.24993 | -88.24067 | 25057 ft | 297 kts | 50° |
| 2026-05-08 18:09 | 31.26208 | -88.22095 | 25061 ft | 302 kts | 51° |
| 2026-05-08 18:09 | 31.27444 | -88.20087 | 25060 ft | 306 kts | 51° |
| 2026-05-08 18:09 | 31.28693 | -88.18059 | 25060 ft | 309 kts | 51° |
| 2026-05-08 18:10 | 31.29956 | -88.16008 | 25056 ft | 312 kts | 51° |
| 2026-05-08 18:10 | 31.31120 | -88.14117 | 25057 ft | 314 kts | 51° |
| 2026-05-08 18:10 | 31.32431 | -88.11984 | 25057 ft | 316 kts | 51° |
| 2026-05-08 18:10 | 31.33719 | -88.09889 | 25057 ft | 318 kts | 51° |
| 2026-05-08 18:11 | 31.35010 | -88.07786 | 25074 ft | 318 kts | 50° |
| 2026-05-08 18:11 | 31.36286 | -88.05704 | 25261 ft | 311 kts | 50° |
| 2026-05-08 18:11 | 31.37539 | -88.03665 | 25440 ft | 306 kts | 50° |
| 2026-05-08 18:11 | 31.38771 | -88.01658 | 25620 ft | 301 kts | 50° |
| 2026-05-08 18:12 | 31.39984 | -87.99680 | 25799 ft | 297 kts | 50° |
| 2026-05-08 18:12 | 31.41182 | -87.97724 | 25982 ft | 293 kts | 50° |
| 2026-05-08 18:12 | 31.42366 | -87.95794 | 26164 ft | 290 kts | 50° |
| 2026-05-08 18:12 | 31.43524 | -87.93901 | 26347 ft | 288 kts | 50° |
| 2026-05-08 18:13 | 31.44686 | -87.92002 | 26533 ft | 285 kts | 50° |
| 2026-05-08 18:13 | 31.45837 | -87.90120 | 26719 ft | 283 kts | 50° |
| 2026-05-08 18:13 | 31.46979 | -87.88253 | 26910 ft | 281 kts | 50° |
| 2026-05-08 18:13 | 31.48117 | -87.86389 | 27040 ft | 283 kts | 50° |
| 2026-05-08 18:14 | 31.49273 | -87.84491 | 27036 ft | 290 kts | 50° |
| 2026-05-08 18:14 | 31.50455 | -87.82546 | 27071 ft | 295 kts | 50° |
| 2026-05-08 18:14 | 31.51662 | -87.80566 | 27053 ft | 301 kts | 49° |
| 2026-05-08 18:14 | 31.52890 | -87.78550 | 27053 ft | 306 kts | 49° |
| 2026-05-08 18:15 | 31.54140 | -87.76502 | 27052 ft | 311 kts | 49° |
| 2026-05-08 18:15 | 31.55407 | -87.74429 | 27055 ft | 315 kts | 49° |
| 2026-05-08 18:15 | 31.56688 | -87.72334 | 27052 ft | 318 kts | 50° |
| 2026-05-08 18:15 | 31.57981 | -87.70214 | 27051 ft | 321 kts | 50° |
| 2026-05-08 18:16 | 31.59282 | -87.68079 | 27052 ft | 323 kts | 50° |
| 2026-05-08 18:16 | 31.60592 | -87.65930 | 27054 ft | 325 kts | 50° |
| 2026-05-08 18:16 | 31.61910 | -87.63766 | 27055 ft | 326 kts | 50° |
| 2026-05-08 18:16 | 31.63231 | -87.61596 | 27054 ft | 328 kts | 50° |
| 2026-05-08 18:17 | 31.64359 | -87.59741 | 27056 ft | 329 kts | 50° |
| 2026-05-08 18:17 | 31.65673 | -87.57580 | 27054 ft | 330 kts | 50° |
| 2026-05-08 18:17 | 31.66999 | -87.55399 | 27149 ft | 327 kts | 50° |
| 2026-05-08 18:17 | 31.68316 | -87.53229 | 27222 ft | 326 kts | 50° |
| 2026-05-08 18:18 | 31.69629 | -87.51068 | 27299 ft | 324 kts | 50° |
| 2026-05-08 18:18 | 31.70945 | -87.48915 | 27371 ft | 325 kts | 49° |
| 2026-05-08 18:18 | 31.72264 | -87.46750 | 27458 ft | 326 kts | 50° |
| 2026-05-08 18:18 | 31.73576 | -87.44569 | 27532 ft | 327 kts | 50° |
| 2026-05-08 18:19 | 31.74896 | -87.42381 | 27609 ft | 328 kts | 50° |
| 2026-05-08 18:19 | 31.76225 | -87.40191 | 27676 ft | 329 kts | 50° |
| 2026-05-08 18:19 | 31.77557 | -87.37994 | 27779 ft | 330 kts | 50° |
| 2026-05-08 18:19 | 31.78889 | -87.35788 | 27854 ft | 331 kts | 50° |
| 2026-05-08 18:20 | 31.80226 | -87.33576 | 27930 ft | 332 kts | 50° |
| 2026-05-08 18:20 | 31.81546 | -87.31389 | 28004 ft | 333 kts | 50° |
| 2026-05-08 18:20 | 31.84232 | -87.26939 | 28161 ft | 334 kts | 50° |
| 2026-05-08 18:21 | 31.86922 | -87.22476 | 28300 ft | 335 kts | 50° |
| 2026-05-08 18:21 | 31.89614 | -87.18005 | 28454 ft | 335 kts | 50° |
| 2026-05-08 18:22 | 31.92308 | -87.13527 | 28607 ft | 335 kts | 50° |
| 2026-05-08 18:22 | 31.94999 | -87.09045 | 28719 ft | 335 kts | 50° |
| 2026-05-08 18:23 | 31.97696 | -87.04554 | 28874 ft | 336 kts | 50° |
| 2026-05-08 18:23 | 32.00394 | -87.00050 | 28995 ft | 337 kts | 50° |
| 2026-05-08 18:24 | 32.03123 | -86.95492 | 29007 ft | 343 kts | 50° |
| 2026-05-08 18:24 | 32.05894 | -86.90858 | 28992 ft | 348 kts | 50° |
| 2026-05-08 18:25 | 32.08705 | -86.86149 | 28997 ft | 353 kts | 50° |
| 2026-05-08 18:25 | 32.11545 | -86.81389 | 28999 ft | 357 kts | 50° |
| 2026-05-08 18:26 | 32.14409 | -86.76579 | 29027 ft | 359 kts | 50° |
| 2026-05-08 18:26 | 32.17293 | -86.71731 | 29020 ft | 362 kts | 50° |
| 2026-05-08 18:27 | 32.19694 | -86.67687 | 29029 ft | 363 kts | 50° |
| 2026-05-08 18:27 | 32.23064 | -86.62010 | 29059 ft | 364 kts | 50° |
| 2026-05-08 18:28 | 32.25977 | -86.57095 | 29072 ft | 364 kts | 50° |
| 2026-05-08 18:28 | 32.28885 | -86.52181 | 29075 ft | 365 kts | 50° |
| 2026-05-08 18:29 | 32.31803 | -86.47246 | 29078 ft | 367 kts | 49° |
| 2026-05-08 18:29 | 32.34728 | -86.42289 | 29050 ft | 368 kts | 49° |
| 2026-05-08 18:30 | 32.37643 | -86.37347 | 29050 ft | 369 kts | 49° |
| 2026-05-08 18:30 | 32.40564 | -86.32346 | 29050 ft | 369 kts | 50° |
| 2026-05-08 18:31 | 32.43483 | -86.27334 | 29054 ft | 370 kts | 50° |
| 2026-05-08 18:31 | 32.46403 | -86.22314 | 29072 ft | 370 kts | 50° |
| 2026-05-08 18:32 | 32.49320 | -86.17292 | 29067 ft | 370 kts | 50° |
| 2026-05-08 18:32 | 32.52241 | -86.12260 | 29065 ft | 370 kts | 50° |
| 2026-05-08 18:33 | 32.55156 | -86.07229 | 29065 ft | 370 kts | 50° |
| 2026-05-08 18:33 | 32.57586 | -86.03031 | 29069 ft | 372 kts | 49° |
| 2026-05-08 18:34 | 32.60512 | -85.97968 | 29068 ft | 372 kts | 49° |
| 2026-05-08 18:34 | 32.63439 | -85.92895 | 29068 ft | 372 kts | 49° |
| 2026-05-08 18:35 | 32.66364 | -85.87825 | 29067 ft | 372 kts | 49° |
| 2026-05-08 18:35 | 32.69265 | -85.82786 | 29066 ft | 372 kts | 49° |
| 2026-05-08 18:36 | 32.72180 | -85.77714 | 29066 ft | 371 kts | 49° |
| 2026-05-08 18:36 | 32.75091 | -85.72645 | 29065 ft | 371 kts | 49° |
| 2026-05-08 18:37 | 32.78284 | -85.67915 | 29082 ft | 366 kts | 42° |
| 2026-05-08 18:37 | 32.81510 | -85.63225 | 29126 ft | 366 kts | 42° |
| 2026-05-08 18:38 | 32.84752 | -85.58539 | 29089 ft | 366 kts | 42° |
| 2026-05-08 18:38 | 32.87984 | -85.53853 | 29085 ft | 366 kts | 42° |
| 2026-05-08 18:39 | 32.91209 | -85.49173 | 29079 ft | 365 kts | 42° |
| 2026-05-08 18:39 | 32.94425 | -85.44500 | 29075 ft | 364 kts | 42° |
| 2026-05-08 18:40 | 32.97614 | -85.39857 | 29067 ft | 364 kts | 42° |